createdAt,value
2017-10-06T00:00:46.813Z,22.7
2017-10-06T00:01:54.915Z,22.8
2017-10-06T00:03:03.060Z,22.7
2017-10-06T00:04:11.073Z,22.8
2017-10-06T00:05:19.160Z,22.8
2017-10-06T00:06:27.455Z,22.8
2017-10-06T00:07:35.340Z,22.8
2017-10-06T00:08:43.426Z,22.7
2017-10-06T00:09:51.509Z,22.8
2017-10-06T00:10:59.603Z,22.8
2017-10-06T00:12:07.690Z,22.9
2017-10-06T00:13:15.784Z,22.8
2017-10-06T00:14:23.867Z,22.8
2017-10-06T00:15:31.954Z,22.8
2017-10-06T00:16:40.041Z,22.8
2017-10-06T00:17:48.133Z,22.8
2017-10-06T00:18:56.214Z,22.8
2017-10-06T00:20:04.550Z,22.8
2017-10-06T00:21:12.637Z,22.8
2017-10-06T00:22:20.725Z,22.8
2017-10-06T00:23:28.814Z,22.8
2017-10-06T00:24:36.901Z,22.8
2017-10-06T00:25:44.990Z,22.9
2017-10-06T00:26:53.078Z,22.9
2017-10-06T00:28:01.169Z,22.8
2017-10-06T00:29:09.254Z,22.9
2017-10-06T00:30:17.343Z,22.8
2017-10-06T00:31:25.430Z,22.9
2017-10-06T00:32:33.517Z,22.8
2017-10-06T00:33:41.605Z,22.9
2017-10-06T00:34:49.702Z,22.8
2017-10-06T00:35:57.788Z,22.9
2017-10-06T00:37:05.874Z,22.9
2017-10-06T00:38:13.961Z,23.0
2017-10-06T00:39:22.048Z,22.8
2017-10-06T00:40:30.134Z,22.8
2017-10-06T00:41:38.226Z,22.8
2017-10-06T00:42:46.311Z,22.8
2017-10-06T00:43:54.398Z,22.9
2017-10-06T00:45:02.489Z,22.9
2017-10-06T00:46:10.576Z,22.9
2017-10-06T00:47:18.663Z,23.0
2017-10-06T00:48:26.754Z,22.9
2017-10-06T00:49:34.841Z,23.0
2017-10-06T00:50:42.929Z,23.0
2017-10-06T00:51:51.015Z,23.0
2017-10-06T00:52:59.111Z,23.0
2017-10-06T00:54:07.199Z,22.9
2017-10-06T00:55:15.287Z,22.9
2017-10-06T00:56:23.375Z,23.0
2017-10-06T00:57:31.462Z,22.9
2017-10-06T00:58:39.551Z,22.9
2017-10-06T00:59:47.639Z,22.9
2017-10-06T01:00:55.725Z,22.9
2017-10-06T01:02:03.814Z,23.0
2017-10-06T01:03:11.901Z,23.0
2017-10-06T01:04:19.987Z,22.9
2017-10-06T01:05:28.075Z,22.9
2017-10-06T01:06:36.162Z,23.0
2017-10-06T01:07:44.258Z,22.9
2017-10-06T01:08:52.347Z,22.9
2017-10-06T01:10:00.433Z,22.9
2017-10-06T01:11:08.522Z,23.0
2017-10-06T01:12:16.609Z,22.9
2017-10-06T01:13:24.696Z,22.9
2017-10-06T01:14:32.809Z,23.0
2017-10-06T01:15:40.871Z,23.0
2017-10-06T01:16:48.960Z,22.9
2017-10-06T01:17:57.049Z,22.9
2017-10-06T01:19:05.136Z,22.9
2017-10-06T01:20:13.223Z,22.9
2017-10-06T01:21:21.310Z,22.9
2017-10-06T01:22:29.416Z,22.9
2017-10-06T01:23:37.485Z,22.9
2017-10-06T01:24:45.574Z,22.9
2017-10-06T01:25:53.664Z,22.9
2017-10-06T01:27:01.749Z,23.0
2017-10-06T01:28:09.838Z,22.9
2017-10-06T01:29:17.926Z,23.0
2017-10-06T01:30:26.014Z,22.9
2017-10-06T01:31:34.101Z,22.9
2017-10-06T01:32:42.187Z,22.8
2017-10-06T01:33:50.280Z,22.9
2017-10-06T01:34:58.361Z,22.9
2017-10-06T01:36:06.457Z,22.9
2017-10-06T01:37:14.537Z,22.8
2017-10-06T01:38:22.701Z,22.9
2017-10-06T01:39:30.980Z,22.9
2017-10-06T01:40:39.063Z,22.9
2017-10-06T01:41:47.149Z,22.9
2017-10-06T01:42:55.238Z,22.8
2017-10-06T01:44:03.329Z,22.9
2017-10-06T01:45:11.415Z,22.8
2017-10-06T01:46:19.506Z,22.9
2017-10-06T01:47:27.591Z,22.8
2017-10-06T01:48:35.679Z,22.8
2017-10-06T01:49:43.768Z,22.8
2017-10-06T01:50:51.859Z,22.8
2017-10-06T01:51:59.943Z,22.9
2017-10-06T01:53:08.027Z,22.9
2017-10-06T01:54:16.125Z,22.9
2017-10-06T01:55:24.212Z,22.8
2017-10-06T01:56:32.304Z,22.8
2017-10-06T01:57:40.388Z,22.8
2017-10-06T01:58:48.480Z,22.8
2017-10-06T01:59:56.564Z,22.8
2017-10-06T02:01:04.669Z,22.8
2017-10-06T02:02:12.739Z,22.7
2017-10-06T02:03:20.827Z,22.8
2017-10-06T02:04:28.915Z,22.8
2017-10-06T02:05:37.002Z,22.8
2017-10-06T02:06:45.090Z,22.8
2017-10-06T02:07:53.184Z,22.7
2017-10-06T02:09:01.266Z,22.8
2017-10-06T02:10:09.353Z,22.8
2017-10-06T02:11:17.442Z,22.7
2017-10-06T02:12:25.528Z,22.8
2017-10-06T02:13:33.614Z,22.8
2017-10-06T02:14:41.704Z,22.8
2017-10-06T02:15:49.794Z,22.8
2017-10-06T02:16:57.880Z,22.7
2017-10-06T02:18:05.967Z,22.8
2017-10-06T02:19:14.054Z,22.7
2017-10-06T02:20:22.143Z,22.8
2017-10-06T02:21:30.230Z,22.7
2017-10-06T02:22:38.323Z,22.8
2017-10-06T02:24:54.492Z,22.8
2017-10-06T02:26:02.581Z,22.7
2017-10-06T02:27:10.668Z,22.8
2017-10-06T02:28:18.756Z,22.8
2017-10-06T02:29:26.843Z,22.8
2017-10-06T02:30:34.937Z,22.8
2017-10-06T02:31:43.019Z,22.7
2017-10-06T02:32:51.106Z,22.8
2017-10-06T02:33:59.195Z,22.6
2017-10-06T02:35:07.283Z,22.7
2017-10-06T02:36:15.371Z,22.6
2017-10-06T02:37:23.457Z,22.7
2017-10-06T02:38:31.543Z,22.6
2017-10-06T02:39:39.639Z,22.6
2017-10-06T02:40:47.727Z,22.6
2017-10-06T02:41:55.814Z,22.7
2017-10-06T02:43:03.904Z,22.6
2017-10-06T02:44:11.990Z,22.6
2017-10-06T02:45:20.079Z,22.6
2017-10-06T02:46:28.243Z,22.7
2017-10-06T02:47:36.252Z,22.7
2017-10-06T02:48:44.340Z,22.7
2017-10-06T02:49:52.426Z,22.6
2017-10-06T02:51:00.515Z,22.6
2017-10-06T02:52:08.604Z,22.6
2017-10-06T02:53:16.691Z,22.6
2017-10-06T02:54:24.780Z,22.6
2017-10-06T02:55:32.864Z,22.6
2017-10-06T02:56:40.953Z,22.6
2017-10-06T02:57:49.039Z,22.6
2017-10-06T02:58:57.125Z,22.6
2017-10-06T03:00:05.212Z,22.6
2017-10-06T03:01:13.302Z,22.6
2017-10-06T03:02:21.388Z,22.6
2017-10-06T03:03:29.476Z,22.5
2017-10-06T03:04:37.565Z,22.6
2017-10-06T03:05:45.653Z,22.5
2017-10-06T03:06:53.738Z,22.5
2017-10-06T03:08:01.827Z,22.5
2017-10-06T03:09:09.924Z,22.5
2017-10-06T03:10:18.011Z,22.6
2017-10-06T03:11:26.099Z,22.5
2017-10-06T03:12:34.187Z,22.5
2017-10-06T03:13:42.276Z,22.5
2017-10-06T03:14:50.360Z,22.5
2017-10-06T03:15:58.447Z,22.5
2017-10-06T03:17:06.540Z,22.5
2017-10-06T03:18:14.623Z,22.5
2017-10-06T03:19:22.710Z,22.5
2017-10-06T03:20:30.797Z,22.5
2017-10-06T03:21:38.887Z,22.5
2017-10-06T03:22:46.998Z,22.5
2017-10-06T03:23:55.060Z,22.5
2017-10-06T03:25:03.154Z,22.4
2017-10-06T03:26:11.267Z,22.5
2017-10-06T03:27:19.352Z,22.4
2017-10-06T03:28:27.440Z,22.4
2017-10-06T03:29:35.536Z,22.4
2017-10-06T03:30:43.617Z,22.4
2017-10-06T03:31:51.707Z,22.4
2017-10-06T03:32:59.791Z,22.4
2017-10-06T03:34:07.879Z,22.4
2017-10-06T03:35:15.965Z,22.4
2017-10-06T03:36:24.052Z,22.4
2017-10-06T03:37:32.140Z,22.4
2017-10-06T03:38:40.225Z,22.3
2017-10-06T03:39:48.313Z,22.3
2017-10-06T03:40:56.409Z,22.3
2017-10-06T03:42:04.488Z,22.3
2017-10-06T03:43:12.579Z,22.3
2017-10-06T03:44:20.664Z,22.2
2017-10-06T03:45:28.752Z,22.3
2017-10-06T03:46:36.836Z,22.3
2017-10-06T03:47:44.930Z,22.3
2017-10-06T03:48:53.010Z,22.3
2017-10-06T03:50:01.141Z,22.3
2017-10-06T03:51:09.208Z,22.3
2017-10-06T03:52:17.271Z,22.2
2017-10-06T03:53:25.361Z,22.3
2017-10-06T03:54:33.447Z,22.3
2017-10-06T03:55:41.533Z,22.1
2017-10-06T03:56:49.620Z,22.2
2017-10-06T03:57:57.706Z,22.2
2017-10-06T03:59:05.794Z,22.2
2017-10-06T04:00:13.881Z,22.2
2017-10-06T04:01:21.980Z,22.2
2017-10-06T04:02:30.065Z,22.2
2017-10-06T04:03:38.152Z,22.1
2017-10-06T04:04:46.237Z,22.2
2017-10-06T04:05:54.323Z,22.2
2017-10-06T04:07:02.417Z,22.1
2017-10-06T04:08:10.499Z,22.1
2017-10-06T04:09:18.585Z,22.1
2017-10-06T04:10:26.674Z,22.1
2017-10-06T04:11:34.769Z,22.1
2017-10-06T04:12:42.863Z,22.1
2017-10-06T04:13:51.031Z,22.1
2017-10-06T04:14:59.042Z,22.1
2017-10-06T04:16:07.128Z,22.1
2017-10-06T04:17:15.214Z,22.0
2017-10-06T04:18:23.306Z,22.0
2017-10-06T04:19:31.391Z,22.0
2017-10-06T04:20:39.476Z,22.1
2017-10-06T04:21:47.561Z,22.0
2017-10-06T04:22:55.651Z,22.1
2017-10-06T04:24:03.968Z,22.0
2017-10-06T04:25:11.823Z,22.0
2017-10-06T04:26:19.920Z,22.0
2017-10-06T04:27:28.000Z,21.9
2017-10-06T04:28:36.192Z,22.0
2017-10-06T04:29:44.172Z,21.9
2017-10-06T04:30:52.261Z,22.0
2017-10-06T04:32:00.836Z,22.0
2017-10-06T04:33:08.490Z,22.0
2017-10-06T04:34:16.610Z,21.9
2017-10-06T04:35:24.753Z,21.9
2017-10-06T04:36:32.723Z,21.9
2017-10-06T04:37:40.912Z,21.9
2017-10-06T04:38:48.872Z,21.9
2017-10-06T04:39:56.956Z,21.9
2017-10-06T04:41:05.044Z,21.9
2017-10-06T04:42:13.132Z,21.9
2017-10-06T04:43:21.218Z,21.9
2017-10-06T04:44:29.306Z,21.9
2017-10-06T04:45:37.392Z,21.8
2017-10-06T04:46:45.589Z,21.9
2017-10-06T04:47:53.565Z,21.8
2017-10-06T04:49:02.142Z,21.8
2017-10-06T04:50:09.737Z,21.8
2017-10-06T04:51:18.061Z,21.8
2017-10-06T04:52:25.925Z,21.8
2017-10-06T04:53:34.014Z,21.8
2017-10-06T04:54:42.099Z,21.8
2017-10-06T04:55:50.199Z,21.8
2017-10-06T04:56:58.274Z,21.8
2017-10-06T04:58:06.364Z,21.8
2017-10-06T04:59:14.447Z,21.8
2017-10-06T05:00:22.535Z,21.7
2017-10-06T05:01:30.624Z,21.7
2017-10-06T05:02:38.708Z,21.8
2017-10-06T05:03:46.794Z,21.8
2017-10-06T05:04:54.882Z,21.8
2017-10-06T05:06:02.967Z,21.8
2017-10-06T05:07:11.052Z,21.7
2017-10-06T05:08:19.161Z,21.7
2017-10-06T05:09:27.237Z,21.8
2017-10-06T05:10:35.324Z,21.6
2017-10-06T05:11:43.409Z,21.7
2017-10-06T05:12:51.495Z,21.6
2017-10-06T05:13:59.581Z,21.7
2017-10-06T05:15:07.668Z,21.7
2017-10-06T05:16:16.282Z,21.5
2017-10-06T05:17:23.854Z,21.5
2017-10-06T05:18:31.950Z,21.6
2017-10-06T05:19:40.024Z,21.6
2017-10-06T05:20:48.643Z,21.7
2017-10-06T05:21:56.224Z,21.7
2017-10-06T05:23:04.356Z,21.8
2017-10-06T05:24:12.469Z,21.6
2017-10-06T05:25:20.666Z,21.6
2017-10-06T05:26:28.569Z,21.6
2017-10-06T05:27:36.645Z,21.6
2017-10-06T05:28:44.738Z,21.6
2017-10-06T05:29:52.905Z,21.6
2017-10-06T05:31:00.929Z,21.7
2017-10-06T05:32:09.040Z,21.6
2017-10-06T05:33:17.142Z,21.6
2017-10-06T05:34:25.188Z,21.6
2017-10-06T05:35:33.290Z,21.6
2017-10-06T05:36:42.051Z,21.6
2017-10-06T05:37:49.797Z,21.6
2017-10-06T05:38:57.607Z,21.5
2017-10-06T05:40:05.667Z,21.6
2017-10-06T05:41:13.954Z,21.5
2017-10-06T05:42:22.361Z,21.5
2017-10-06T05:43:32.103Z,21.5
2017-10-06T05:44:38.077Z,21.5
2017-10-06T05:45:46.248Z,21.5
2017-10-06T05:46:54.251Z,21.5
2017-10-06T05:48:02.232Z,21.5
2017-10-06T05:49:10.338Z,21.5
2017-10-06T05:50:18.426Z,21.4
2017-10-06T05:51:26.513Z,21.4
2017-10-06T05:52:34.602Z,21.4
2017-10-06T05:53:42.704Z,21.4
2017-10-06T05:54:50.783Z,21.4
2017-10-06T05:55:58.870Z,21.4
2017-10-06T05:57:06.956Z,21.3
2017-10-06T05:58:15.043Z,21.3
2017-10-06T05:59:23.130Z,21.4
2017-10-06T06:00:31.216Z,21.4
2017-10-06T06:01:39.301Z,21.4
2017-10-06T06:02:47.388Z,21.3
2017-10-06T06:03:55.476Z,21.4
2017-10-06T06:05:03.563Z,21.3
2017-10-06T06:06:11.650Z,21.3
2017-10-06T06:07:19.734Z,21.3
2017-10-06T06:08:27.822Z,21.3
2017-10-06T06:09:35.908Z,21.3
2017-10-06T06:10:43.991Z,21.3
2017-10-06T06:11:52.077Z,21.4
2017-10-06T06:13:00.167Z,21.3
2017-10-06T06:14:08.264Z,21.3
2017-10-06T06:15:16.339Z,21.3
2017-10-06T06:16:24.429Z,21.3
2017-10-06T06:17:32.514Z,21.3
2017-10-06T06:18:40.597Z,21.3
2017-10-06T06:19:48.681Z,21.2
2017-10-06T06:20:56.767Z,21.2
2017-10-06T06:22:04.857Z,21.3
2017-10-06T06:23:12.940Z,21.3
2017-10-06T06:24:21.031Z,21.1
2017-10-06T06:25:29.113Z,21.2
2017-10-06T06:26:37.198Z,21.1
2017-10-06T06:27:45.286Z,21.1
2017-10-06T06:28:53.369Z,21.1
2017-10-06T06:30:01.454Z,21.2
2017-10-06T06:31:09.603Z,21.1
2017-10-06T06:32:17.625Z,21.1
2017-10-06T06:33:25.721Z,21.1
2017-10-06T06:34:33.801Z,21.2
2017-10-06T06:35:41.886Z,21.1
2017-10-06T06:36:49.973Z,21.0
2017-10-06T06:37:58.059Z,21.1
2017-10-06T06:39:06.148Z,21.1
2017-10-06T06:40:14.235Z,21.1
2017-10-06T06:41:22.323Z,21.1
2017-10-06T06:42:30.408Z,21.1
2017-10-06T06:43:38.495Z,21.1
2017-10-06T06:44:47.184Z,21.1
2017-10-06T06:45:55.270Z,21.1
2017-10-06T06:47:03.358Z,21.1
2017-10-06T06:48:11.440Z,21.1
2017-10-06T06:49:19.534Z,21.1
2017-10-06T06:50:27.621Z,21.0
2017-10-06T06:51:35.709Z,21.0
2017-10-06T06:52:43.795Z,21.1
2017-10-06T06:53:51.881Z,21.1
2017-10-06T06:54:59.994Z,21.0
2017-10-06T06:56:08.079Z,21.0
2017-10-06T06:57:16.168Z,21.0
2017-10-06T06:58:24.261Z,21.0
2017-10-06T06:59:32.347Z,20.9
2017-10-06T07:00:40.438Z,21.0
2017-10-06T07:01:48.519Z,21.0
2017-10-06T07:02:56.607Z,21.1
2017-10-06T07:04:04.691Z,21.1
2017-10-06T07:05:12.778Z,21.1
2017-10-06T07:06:20.883Z,20.9
2017-10-06T07:07:28.948Z,21.1
2017-10-06T07:08:37.033Z,21.0
2017-10-06T07:09:45.145Z,20.9
2017-10-06T07:10:53.230Z,20.9
2017-10-06T07:12:01.315Z,21.0
2017-10-06T07:13:09.399Z,20.9
2017-10-06T07:14:17.485Z,20.9
2017-10-06T07:15:25.571Z,20.9
2017-10-06T07:16:33.660Z,21.0
2017-10-06T07:17:41.757Z,20.9
2017-10-06T07:18:49.837Z,20.9
2017-10-06T07:19:57.924Z,20.9
2017-10-06T07:21:06.008Z,20.9
2017-10-06T07:22:14.097Z,20.9
2017-10-06T07:23:22.182Z,20.9
2017-10-06T07:24:30.268Z,20.9
2017-10-06T07:25:38.395Z,20.9
2017-10-06T07:26:46.441Z,20.9
2017-10-06T07:27:54.529Z,20.9
2017-10-06T07:29:02.613Z,20.9
2017-10-06T07:30:10.701Z,20.8
2017-10-06T07:31:18.783Z,20.9
2017-10-06T07:32:26.870Z,20.8
2017-10-06T07:33:34.956Z,20.8
2017-10-06T07:34:43.042Z,20.8
2017-10-06T07:35:51.129Z,20.8
2017-10-06T07:36:59.215Z,20.8
2017-10-06T07:38:07.301Z,20.8
2017-10-06T07:39:15.387Z,20.8
2017-10-06T07:40:23.471Z,20.8
2017-10-06T07:41:31.561Z,20.7
2017-10-06T07:42:39.644Z,20.8
2017-10-06T07:43:47.730Z,20.8
2017-10-06T07:44:55.815Z,20.7
2017-10-06T07:46:03.904Z,20.7
2017-10-06T07:47:11.989Z,20.7
2017-10-06T07:48:20.194Z,20.7
2017-10-06T07:49:28.188Z,20.7
2017-10-06T07:50:36.253Z,20.7
2017-10-06T07:51:44.345Z,20.7
2017-10-06T07:52:52.427Z,20.7
2017-10-06T07:54:00.512Z,20.7
2017-10-06T07:55:08.604Z,20.7
2017-10-06T07:56:16.683Z,20.7
2017-10-06T07:57:24.776Z,20.7
2017-10-06T07:58:32.852Z,20.7
2017-10-06T07:59:40.940Z,20.6
2017-10-06T08:00:49.027Z,20.7
2017-10-06T08:01:57.195Z,20.7
2017-10-06T08:03:05.199Z,20.7
2017-10-06T08:04:13.284Z,20.6
2017-10-06T08:05:21.372Z,20.7
2017-10-06T08:06:29.457Z,20.6
2017-10-06T08:07:37.543Z,20.6
2017-10-06T08:08:45.627Z,20.6
2017-10-06T08:09:53.712Z,20.6
2017-10-06T08:11:01.810Z,20.6
2017-10-06T08:12:10.030Z,20.6
2017-10-06T08:13:18.114Z,20.6
2017-10-06T08:14:26.275Z,20.5
2017-10-06T08:15:34.362Z,20.6
2017-10-06T08:16:42.451Z,20.4
2017-10-06T08:17:50.538Z,20.5
2017-10-06T08:18:58.625Z,20.5
2017-10-06T08:20:06.719Z,20.6
2017-10-06T08:21:14.795Z,20.5
2017-10-06T08:22:22.903Z,20.6
2017-10-06T08:23:30.988Z,20.5
2017-10-06T08:24:39.101Z,20.5
2017-10-06T08:25:47.161Z,20.3
2017-10-06T08:26:55.247Z,20.5
2017-10-06T08:28:03.332Z,20.5
2017-10-06T08:29:11.418Z,20.5
2017-10-06T08:30:19.504Z,20.4
2017-10-06T08:31:27.590Z,20.5
2017-10-06T08:32:35.682Z,20.5
2017-10-06T08:33:43.762Z,20.4
2017-10-06T08:34:51.847Z,20.5
2017-10-06T08:35:59.936Z,20.4
2017-10-06T08:37:08.029Z,20.5
2017-10-06T08:38:16.113Z,20.5
2017-10-06T08:39:24.200Z,20.6
2017-10-06T08:40:32.287Z,20.5
2017-10-06T08:41:40.373Z,20.5
2017-10-06T08:42:48.494Z,20.4
2017-10-06T08:43:56.545Z,20.5
2017-10-06T08:45:04.637Z,20.5
2017-10-06T08:46:12.723Z,20.5
2017-10-06T08:47:20.810Z,20.3
2017-10-06T08:48:28.966Z,20.4
2017-10-06T08:49:36.993Z,20.3
2017-10-06T08:50:45.080Z,20.3
2017-10-06T08:51:53.168Z,20.3
2017-10-06T08:53:01.257Z,20.3
2017-10-06T08:54:09.342Z,20.4
2017-10-06T08:55:17.431Z,20.3
2017-10-06T08:56:25.521Z,20.3
2017-10-06T08:57:33.602Z,20.3
2017-10-06T08:58:41.688Z,20.4
2017-10-06T08:59:49.775Z,20.4
2017-10-06T09:00:57.865Z,20.4
2017-10-06T09:02:05.944Z,20.2
2017-10-06T09:03:14.030Z,20.3
2017-10-06T09:04:22.117Z,20.3
2017-10-06T09:05:30.210Z,20.2
2017-10-06T09:06:38.288Z,20.3
2017-10-06T09:07:46.374Z,20.3
2017-10-06T09:08:54.465Z,20.3
2017-10-06T09:10:02.545Z,20.3
2017-10-06T09:11:10.632Z,20.3
2017-10-06T09:12:18.716Z,20.2
2017-10-06T09:13:26.804Z,20.1
2017-10-06T09:14:34.888Z,20.2
2017-10-06T09:15:42.975Z,20.3
2017-10-06T09:16:51.062Z,20.2
2017-10-06T09:17:59.146Z,20.2
2017-10-06T09:19:07.232Z,20.2
2017-10-06T09:20:15.319Z,20.2
2017-10-06T09:21:23.402Z,20.1
2017-10-06T09:22:31.488Z,20.2
2017-10-06T09:23:39.574Z,20.1
2017-10-06T09:24:47.661Z,20.2
2017-10-06T09:25:55.767Z,20.2
2017-10-06T09:27:03.832Z,20.2
2017-10-06T09:28:11.921Z,20.2
2017-10-06T09:29:20.006Z,20.2
2017-10-06T09:30:28.096Z,20.1
2017-10-06T09:31:36.176Z,20.1
2017-10-06T09:32:44.261Z,20.1
2017-10-06T09:33:52.347Z,20.1
2017-10-06T09:35:00.437Z,20.1
2017-10-06T09:36:08.520Z,20.1
2017-10-06T09:37:16.605Z,20.1
2017-10-06T09:38:24.692Z,20.2
2017-10-06T09:39:32.780Z,20.1
2017-10-06T09:40:40.862Z,20.1
2017-10-06T09:41:48.948Z,20.1
2017-10-06T09:42:57.033Z,20.1
2017-10-06T09:44:05.118Z,20.0
2017-10-06T09:45:13.204Z,20.0
2017-10-06T09:46:21.292Z,20.1
2017-10-06T09:47:29.377Z,20.0
2017-10-06T09:48:37.463Z,20.0
2017-10-06T09:49:45.558Z,20.0
2017-10-06T09:50:53.648Z,20.0
2017-10-06T09:52:01.733Z,20.1
2017-10-06T09:53:09.818Z,20.1
2017-10-06T09:54:18.243Z,20.0
2017-10-06T09:55:26.629Z,20.1
2017-10-06T09:56:34.713Z,20.0
2017-10-06T09:57:42.802Z,20.0
2017-10-06T09:58:50.887Z,20.1
2017-10-06T09:59:58.976Z,20.0
2017-10-06T10:01:07.067Z,20.0
2017-10-06T10:02:15.155Z,20.0
2017-10-06T10:03:23.244Z,20.0
2017-10-06T10:04:31.329Z,20.0
2017-10-06T10:05:39.413Z,20.0
2017-10-06T10:06:47.499Z,20.0
2017-10-06T10:07:55.586Z,20.0
2017-10-06T10:09:03.694Z,20.0
2017-10-06T10:10:11.761Z,20.0
2017-10-06T10:11:19.846Z,19.9
2017-10-06T10:12:27.932Z,20.0
2017-10-06T10:13:36.067Z,19.9
2017-10-06T10:14:44.151Z,20.0
2017-10-06T10:15:52.246Z,20.0
2017-10-06T10:17:00.334Z,20.0
2017-10-06T10:18:08.409Z,19.9
2017-10-06T10:19:16.500Z,19.9
2017-10-06T10:20:24.581Z,19.9
2017-10-06T10:21:32.668Z,19.9
2017-10-06T10:22:40.769Z,19.9
2017-10-06T10:23:48.844Z,19.9
2017-10-06T10:24:56.930Z,19.9
2017-10-06T10:26:05.015Z,19.9
2017-10-06T10:27:13.102Z,20.0
2017-10-06T10:28:21.188Z,19.8
2017-10-06T10:29:29.272Z,19.9
2017-10-06T10:30:37.372Z,19.8
2017-10-06T10:31:45.442Z,19.8
2017-10-06T10:32:53.528Z,19.9
2017-10-06T10:34:01.616Z,19.8
2017-10-06T10:35:09.699Z,19.8
2017-10-06T10:36:17.810Z,19.8
2017-10-06T10:37:25.872Z,19.9
2017-10-06T10:38:33.957Z,19.9
2017-10-06T10:39:42.078Z,19.8
2017-10-06T10:40:50.197Z,19.8
2017-10-06T10:41:58.288Z,19.8
2017-10-06T10:43:06.366Z,19.8
2017-10-06T10:44:14.695Z,19.8
2017-10-06T10:45:22.778Z,19.9
2017-10-06T10:46:30.870Z,19.8
2017-10-06T10:47:38.947Z,19.7
2017-10-06T10:48:47.033Z,19.7
2017-10-06T10:49:55.119Z,19.7
2017-10-06T10:51:03.204Z,19.8
2017-10-06T10:52:11.291Z,19.7
2017-10-06T10:53:19.377Z,19.7
2017-10-06T10:54:27.463Z,19.7
2017-10-06T10:55:35.547Z,19.8
2017-10-06T10:56:43.633Z,19.7
2017-10-06T10:57:51.738Z,19.7
2017-10-06T10:58:59.823Z,19.8
2017-10-06T11:00:07.908Z,19.7
2017-10-06T11:01:15.995Z,19.8
2017-10-06T11:02:24.081Z,19.8
2017-10-06T11:03:32.166Z,19.8
2017-10-06T11:04:40.251Z,19.7
2017-10-06T11:05:48.347Z,19.7
2017-10-06T11:06:56.425Z,19.7
2017-10-06T11:08:04.506Z,19.7
2017-10-06T11:09:12.598Z,19.7
2017-10-06T11:10:20.679Z,19.7
2017-10-06T11:11:28.765Z,19.7
2017-10-06T11:12:36.854Z,19.7
2017-10-06T11:13:44.937Z,19.6
2017-10-06T11:14:53.024Z,19.7
2017-10-06T11:16:01.114Z,19.8
2017-10-06T11:17:09.194Z,19.7
2017-10-06T11:18:17.290Z,19.8
2017-10-06T11:19:25.375Z,19.7
2017-10-06T11:20:33.461Z,19.7
2017-10-06T11:21:41.544Z,19.7
2017-10-06T11:22:49.630Z,19.7
2017-10-06T11:23:57.715Z,19.7
2017-10-06T11:25:05.804Z,19.6
2017-10-06T11:26:13.888Z,19.6
2017-10-06T11:27:21.975Z,19.6
2017-10-06T11:28:30.066Z,19.7
2017-10-06T11:29:38.145Z,19.6
2017-10-06T11:30:46.230Z,19.7
2017-10-06T11:31:54.316Z,19.6
2017-10-06T11:33:02.403Z,19.7
2017-10-06T11:34:10.497Z,19.6
2017-10-06T11:35:18.581Z,19.6
2017-10-06T11:36:26.666Z,19.6
2017-10-06T11:37:34.754Z,19.7
2017-10-06T11:38:42.840Z,19.7
2017-10-06T11:39:50.928Z,19.6
2017-10-06T11:40:59.011Z,19.7
2017-10-06T11:42:07.097Z,19.7
2017-10-06T11:43:15.182Z,19.7
2017-10-06T11:44:23.269Z,19.6
2017-10-06T11:45:31.356Z,19.7
2017-10-06T11:46:39.441Z,19.7
2017-10-06T11:47:47.526Z,19.6
2017-10-06T11:48:55.611Z,19.7
2017-10-06T11:50:03.695Z,19.6
2017-10-06T11:51:11.799Z,19.6
2017-10-06T11:52:19.871Z,19.6
2017-10-06T11:53:27.952Z,19.6
2017-10-06T11:54:36.039Z,19.6
2017-10-06T11:55:44.125Z,19.6
2017-10-06T11:56:52.209Z,19.6
2017-10-06T11:58:00.297Z,19.6
2017-10-06T11:59:08.381Z,19.6
2017-10-06T12:00:16.468Z,19.6
2017-10-06T12:01:24.553Z,19.6
2017-10-06T12:02:32.639Z,19.6
2017-10-06T12:03:40.725Z,19.6
2017-10-06T12:04:48.811Z,19.6
2017-10-06T12:05:56.896Z,19.6
2017-10-06T12:07:04.982Z,19.6
2017-10-06T12:08:13.069Z,19.6
2017-10-06T12:09:21.152Z,19.6
2017-10-06T12:10:29.239Z,19.6
2017-10-06T12:11:37.324Z,19.6
2017-10-06T12:12:45.410Z,19.6
2017-10-06T12:13:53.494Z,19.5
2017-10-06T12:15:01.582Z,19.5
2017-10-06T12:16:09.668Z,19.6
2017-10-06T12:17:17.752Z,19.6
2017-10-06T12:18:25.836Z,19.5
2017-10-06T12:19:33.922Z,19.6
2017-10-06T12:20:42.007Z,19.6
2017-10-06T12:21:50.094Z,19.6
2017-10-06T12:22:58.180Z,19.6
2017-10-06T12:24:06.265Z,19.5
2017-10-06T12:25:14.350Z,19.5
2017-10-06T12:26:22.437Z,19.6
2017-10-06T12:27:30.525Z,19.6
2017-10-06T12:28:38.606Z,19.6
2017-10-06T12:29:46.773Z,19.5
2017-10-06T12:30:54.780Z,19.5
2017-10-06T12:32:02.869Z,19.5
2017-10-06T12:33:10.954Z,19.6
2017-10-06T12:34:19.041Z,19.6
2017-10-06T12:35:27.124Z,19.6
2017-10-06T12:36:35.340Z,19.5
2017-10-06T12:37:43.445Z,19.5
2017-10-06T12:38:51.533Z,19.5
2017-10-06T12:39:59.620Z,19.6
2017-10-06T12:41:07.700Z,19.6
2017-10-06T12:42:15.888Z,19.6
2017-10-06T12:43:23.988Z,19.5
2017-10-06T12:44:32.071Z,19.5
2017-10-06T12:45:40.153Z,19.6
2017-10-06T12:46:48.246Z,19.6
2017-10-06T12:47:56.323Z,19.5
2017-10-06T12:49:04.409Z,19.5
2017-10-06T12:50:12.501Z,19.4
2017-10-06T12:51:20.586Z,19.5
2017-10-06T12:52:28.669Z,19.5
2017-10-06T12:53:36.767Z,19.5
2017-10-06T12:54:44.839Z,19.4
2017-10-06T12:55:52.924Z,19.5
2017-10-06T12:57:01.010Z,19.4
2017-10-06T12:58:09.096Z,19.5
2017-10-06T12:59:17.182Z,19.5
2017-10-06T13:00:25.267Z,19.4
2017-10-06T13:01:33.352Z,19.4
2017-10-06T13:02:41.438Z,19.4
2017-10-06T13:03:49.530Z,19.5
2017-10-06T13:04:57.618Z,19.5
2017-10-06T13:06:05.692Z,19.4
2017-10-06T13:07:13.797Z,19.4
2017-10-06T13:08:21.867Z,19.4
2017-10-06T13:09:29.948Z,19.4
2017-10-06T13:10:38.035Z,19.4
2017-10-06T13:11:46.122Z,19.5
2017-10-06T13:12:54.206Z,19.4
2017-10-06T13:14:02.284Z,19.4
2017-10-06T13:15:10.381Z,19.5
2017-10-06T13:16:18.464Z,19.4
2017-10-06T13:17:26.553Z,19.4
2017-10-06T13:18:34.652Z,19.4
2017-10-06T13:19:42.738Z,19.4
2017-10-06T13:20:50.816Z,19.5
2017-10-06T13:21:58.903Z,19.4
2017-10-06T13:23:06.997Z,19.4
2017-10-06T13:24:15.074Z,19.4
2017-10-06T13:25:23.168Z,19.4
2017-10-06T13:26:31.245Z,19.4
2017-10-06T13:27:39.332Z,19.5
2017-10-06T13:28:47.414Z,19.3
2017-10-06T13:29:55.500Z,19.4
2017-10-06T13:31:03.587Z,19.3
2017-10-06T13:32:11.672Z,19.3
2017-10-06T13:33:19.757Z,19.4
2017-10-06T13:34:27.843Z,19.4
2017-10-06T13:35:35.928Z,19.3
2017-10-06T13:36:44.016Z,19.4
2017-10-06T13:37:52.097Z,19.4
2017-10-06T13:39:00.186Z,19.4
2017-10-06T13:40:08.269Z,19.2
2017-10-06T13:41:16.355Z,19.3
2017-10-06T13:42:24.444Z,19.4
2017-10-06T13:43:32.529Z,19.4
2017-10-06T13:44:40.616Z,19.4
2017-10-06T13:45:48.696Z,19.2
2017-10-06T13:46:56.782Z,19.3
2017-10-06T13:48:04.867Z,19.3
2017-10-06T13:49:12.952Z,19.3
2017-10-06T13:50:21.036Z,19.2
2017-10-06T13:51:29.121Z,19.2
2017-10-06T13:52:37.226Z,19.3
2017-10-06T13:53:45.293Z,19.3
2017-10-06T13:54:53.383Z,19.3
2017-10-06T13:56:01.472Z,19.2
2017-10-06T13:57:09.554Z,19.2
2017-10-06T13:58:17.635Z,19.2
2017-10-06T13:59:25.721Z,19.3
2017-10-06T14:00:33.807Z,19.3
2017-10-06T14:01:41.890Z,19.2
2017-10-06T14:02:49.975Z,19.2
2017-10-06T14:03:58.061Z,19.2
2017-10-06T14:05:06.147Z,19.2
2017-10-06T14:06:14.248Z,19.2
2017-10-06T14:07:22.319Z,19.2
2017-10-06T14:08:30.403Z,19.2
2017-10-06T14:09:38.488Z,19.2
2017-10-06T14:10:46.582Z,19.2
2017-10-06T14:11:54.677Z,19.2
2017-10-06T14:13:02.753Z,19.2
2017-10-06T14:14:10.845Z,19.2
2017-10-06T14:16:27.009Z,19.2
2017-10-06T14:17:35.093Z,19.2
2017-10-06T14:18:43.188Z,19.1
2017-10-06T14:19:51.274Z,19.1
2017-10-06T14:20:59.359Z,19.2
2017-10-06T14:22:08.052Z,19.1
2017-10-06T14:23:16.136Z,19.2
2017-10-06T14:24:24.227Z,19.2
2017-10-06T14:25:32.306Z,19.1
2017-10-06T14:26:40.391Z,19.1
2017-10-06T14:27:48.477Z,19.1
2017-10-06T14:28:56.562Z,19.1
2017-10-06T14:30:04.659Z,19.1
2017-10-06T14:31:12.743Z,19.1
2017-10-06T14:32:20.840Z,19.1
2017-10-06T14:33:28.934Z,19.1
2017-10-06T14:34:37.020Z,19.1
2017-10-06T14:35:45.103Z,19.1
2017-10-06T14:36:53.187Z,19.1
2017-10-06T14:38:01.271Z,19.1
2017-10-06T14:39:09.357Z,19.1
2017-10-06T14:40:17.446Z,19.1
2017-10-06T14:41:25.546Z,19.1
2017-10-06T14:42:33.613Z,19.1
2017-10-06T14:43:41.699Z,19.1
2017-10-06T14:44:49.784Z,19.1
2017-10-06T14:45:57.868Z,19.1
2017-10-06T14:47:05.953Z,19.1
2017-10-06T14:48:14.043Z,19.1
2017-10-06T14:49:22.122Z,19.1
2017-10-06T14:50:30.210Z,19.1
2017-10-06T14:51:38.295Z,19.1
2017-10-06T14:52:46.378Z,19.1
2017-10-06T14:53:54.465Z,19.1
2017-10-06T14:55:02.550Z,19.1
2017-10-06T14:56:10.635Z,19.1
2017-10-06T14:57:18.721Z,19.1
2017-10-06T14:58:26.817Z,19.0
2017-10-06T14:59:34.903Z,19.1
2017-10-06T15:00:43.026Z,19.1
2017-10-06T15:01:51.121Z,19.0
2017-10-06T15:02:59.205Z,19.1
2017-10-06T15:04:07.307Z,19.1
2017-10-06T15:05:15.392Z,19.1
2017-10-06T15:06:23.477Z,19.1
2017-10-06T15:07:31.563Z,19.1
2017-10-06T15:08:39.647Z,19.1